Terrace, Minnesota
Current Conditions -  °F | °C
As of 5:53 AM on Thursday 23 Oct 2014 (Local Time) from KGHW Reporting Station
Moderate Fog Moderate Fog  
Wind Chill: 46°   Ceiling: 200
Heat Index: 46°   Visibility: 0mi
Dew Point: 46°   Wind: 3mph
Humidity: 100%   Direction: 230°SW
Pressure: 29.95"   Gusts: NA
Location:  45.6105°N, 95.373°W
Report Text: KGHW 231053Z AUTO 23003KT M1/4SM FG OVC002 08/08 A2995 RMK AO2
Loading
Personal Weather Stations






























Interactive Weather Map
Tropical Storm Tracking
New forecast layout! Learn more

10-Day Weather Forecast

Advertisements
Track Severe Weather on mobile